Capitol Logistics 325


KRIV
March Air Reserve Base
Riverside, California, US
KAFW
Fort Worth Alliance Airport
Fort Worth, Texas, US

Activity Log

Date Flight Route Aircraft Duration
No Flights Yet

Route Details

Aircraft Information
Primary: Boeing 767-300BDSF
Backup: Not Available
Route Data
Distance: 1001nm
Sched. Duration: 2h 39m
Avg. Duration: 0h 00m (-240m)
Times Flown: 0
Recm'd Route: TRM J78 ABQ J72 TURKI WESAT2
Planned Altitude: 33,000ft
Origin Wx: KRIV 272258Z AUTO 08011KT 10SM FEW150 25/M07 A3015 RMK AO2 SLP204 T02461067
Dest. Wx: KAFW 272253Z 19010KT 10SM CLR 17/M06 A3020 RMK AO2 SLP230 T01671061
Notes:

Financial History
Total Freight: 0lbs
Average Load: 0lbs/flt
Fuel Used: 0lbs
Avg. Fuel Used: 0lbs/flt
Fuel Expense: $0
Avg. Fuel Expense: $0
Avg. Fuel Cost: $0/lbs
Total Gross Income: $0
Pilot Pay: $0
Total Expenses: $0
Total Revenue: $0
Average Revenue: $0